sensor_id;sensor_type;location;lat;lon;timestamp;temperature;humidity
5901;DHT22;2976;49.764;9.796;2023-02-28T00:00:45;-2.60;99.90
5901;DHT22;2976;49.764;9.796;2023-02-28T00:03:10;-2.70;99.90
5901;DHT22;2976;49.764;9.796;2023-02-28T00:05:36;-2.70;99.90
5901;DHT22;2976;49.764;9.796;2023-02-28T00:08:02;-2.70;99.90
5901;DHT22;2976;49.764;9.796;2023-02-28T00:10:29;-2.70;99.90
5901;DHT22;2976;49.764;9.796;2023-02-28T00:12:58;-2.70;99.90
5901;DHT22;2976;49.764;9.796;2023-02-28T00:15:24;-2.80;99.90
5901;DHT22;2976;49.764;9.796;2023-02-28T00:17:50;-2.70;99.90
5901;DHT22;2976;49.764;9.796;2023-02-28T00:20:16;-2.80;99.90
5901;DHT22;2976;49.764;9.796;2023-02-28T00:22:44;-2.80;99.90
5901;DHT22;2976;49.764;9.796;2023-02-28T00:25:11;-2.80;99.90
5901;DHT22;2976;49.764;9.796;2023-02-28T00:27:38;-3.00;99.90
5901;DHT22;2976;49.764;9.796;2023-02-28T00:30:05;-3.00;99.90
5901;DHT22;2976;49.764;9.796;2023-02-28T00:32:31;-3.10;99.90
5901;DHT22;2976;49.764;9.796;2023-02-28T00:34:56;-3.10;99.90
5901;DHT22;2976;49.764;9.796;2023-02-28T00:37:22;-3.10;99.90
5901;DHT22;2976;49.764;9.796;2023-02-28T00:39:48;-3.10;99.90
5901;DHT22;2976;49.764;9.796;2023-02-28T00:42:13;-3.20;99.90
5901;DHT22;2976;49.764;9.796;2023-02-28T00:44:39;-3.20;99.90
5901;DHT22;2976;49.764;9.796;2023-02-28T00:47:05;-3.30;99.90
5901;DHT22;2976;49.764;9.796;2023-02-28T00:49:30;-3.20;99.90
5901;DHT22;2976;49.764;9.796;2023-02-28T00:51:56;-3.20;99.90
5901;DHT22;2976;49.764;9.796;2023-02-28T00:54:22;-3.20;99.90
5901;DHT22;2976;49.764;9.796;2023-02-28T00:56:48;-3.20;99.90
5901;DHT22;2976;49.764;9.796;2023-02-28T00:59:15;-3.10;99.90
5901;DHT22;2976;49.764;9.796;2023-02-28T01:01:42;-3.10;99.90
5901;DHT22;2976;49.764;9.796;2023-02-28T01:04:08;-3.00;99.90
5901;DHT22;2976;49.764;9.796;2023-02-28T01:06:33;-3.00;99.90
5901;DHT22;2976;49.764;9.796;2023-02-28T01:08:59;-2.90;99.90
5901;DHT22;2976;49.764;9.796;2023-02-28T01:11:25;-3.00;99.90
5901;DHT22;2976;49.764;9.796;2023-02-28T01:13:51;-3.10;99.90
5901;DHT22;2976;49.764;9.796;2023-02-28T01:16:17;-3.00;99.90
5901;DHT22;2976;49.764;9.796;2023-02-28T01:18:43;-3.00;99.90
5901;DHT22;2976;49.764;9.796;2023-02-28T01:21:12;-3.00;99.90
5901;DHT22;2976;49.764;9.796;2023-02-28T01:23:39;-3.10;99.90
5901;DHT22;2976;49.764;9.796;2023-02-28T01:26:06;-3.20;99.90
5901;DHT22;2976;49.764;9.796;2023-02-28T01:28:32;-3.20;99.90
5901;DHT22;2976;49.764;9.796;2023-02-28T01:30:58;-3.30;99.90
5901;DHT22;2976;49.764;9.796;2023-02-28T01:33:23;-3.30;99.90
5901;DHT22;2976;49.764;9.796;2023-02-28T01:35:49;-3.30;99.90
5901;DHT22;2976;49.764;9.796;2023-02-28T01:38:14;-3.30;99.90
5901;DHT22;2976;49.764;9.796;2023-02-28T01:40:40;-3.20;99.90
5901;DHT22;2976;49.764;9.796;2023-02-28T01:43:54;-3.20;99.90
5901;DHT22;2976;49.764;9.796;2023-02-28T01:46:18;-3.30;99.90
5901;DHT22;2976;49.764;9.796;2023-02-28T01:48:49;-3.30;99.90
5901;DHT22;2976;49.764;9.796;2023-02-28T01:51:20;-3.30;99.90
5901;DHT22;2976;49.764;9.796;2023-02-28T01:54:01;-3.30;99.90
5901;DHT22;2976;49.764;9.796;2023-02-28T01:56:31;-3.30;99.90
5901;DHT22;2976;49.764;9.796;2023-02-28T01:58:58;-3.40;99.90
5901;DHT22;2976;49.764;9.796;2023-02-28T02:01:26;-3.30;99.90
5901;DHT22;2976;49.764;9.796;2023-02-28T02:03:57;-3.30;99.90
5901;DHT22;2976;49.764;9.796;2023-02-28T02:06:50;-3.30;99.90
5901;DHT22;2976;49.764;9.796;2023-02-28T02:09:16;-3.30;99.90
5901;DHT22;2976;49.764;9.796;2023-02-28T02:11:43;-3.40;99.90
5901;DHT22;2976;49.764;9.796;2023-02-28T02:14:26;-3.30;99.90
5901;DHT22;2976;49.764;9.796;2023-02-28T02:25:29;-3.40;99.90
5901;DHT22;2976;49.764;9.796;2023-02-28T02:36:28;-3.70;99.90
5901;DHT22;2976;49.764;9.796;2023-02-28T02:39:25;-3.80;99.90
5901;DHT22;2976;49.764;9.796;2023-02-28T02:41:58;-3.80;99.90
5901;DHT22;2976;49.764;9.796;2023-02-28T02:46:55;-3.80;99.90
5901;DHT22;2976;49.764;9.796;2023-02-28T02:49:31;-3.70;99.90
5901;DHT22;2976;49.764;9.796;2023-02-28T02:52:02;-3.70;99.90
5901;DHT22;2976;49.764;9.796;2023-02-28T02:54:31;-3.80;99.90
5901;DHT22;2976;49.764;9.796;2023-02-28T02:57:01;-3.80;99.90
5901;DHT22;2976;49.764;9.796;2023-02-28T02:59:30;-3.90;99.90
5901;DHT22;2976;49.764;9.796;2023-02-28T03:01:59;-4.00;99.90
5901;DHT22;2976;49.764;9.796;2023-02-28T03:04:28;-4.00;99.90
5901;DHT22;2976;49.764;9.796;2023-02-28T03:06:55;-4.00;99.90
5901;DHT22;2976;49.764;9.796;2023-02-28T03:09:22;-4.00;99.90
5901;DHT22;2976;49.764;9.796;2023-02-28T03:11:48;-4.00;99.90
5901;DHT22;2976;49.764;9.796;2023-02-28T03:22:32;-4.00;99.90
5901;DHT22;2976;49.764;9.796;2023-02-28T03:30:37;-3.80;99.90
5901;DHT22;2976;49.764;9.796;2023-02-28T03:35:36;-3.80;99.90
5901;DHT22;2976;49.764;9.796;2023-02-28T03:38:27;-3.80;99.90
5901;DHT22;2976;49.764;9.796;2023-02-28T03:41:14;-3.70;99.90
5901;DHT22;2976;49.764;9.796;2023-02-28T03:43:45;-3.70;99.90
5901;DHT22;2976;49.764;9.796;2023-02-28T03:46:15;-3.70;99.90
5901;DHT22;2976;49.764;9.796;2023-02-28T03:48:45;-3.80;99.90
5901;DHT22;2976;49.764;9.796;2023-02-28T03:51:17;-3.80;99.90
5901;DHT22;2976;49.764;9.796;2023-02-28T03:53:48;-3.80;99.90
5901;DHT22;2976;49.764;9.796;2023-02-28T03:56:21;-3.90;99.90
5901;DHT22;2976;49.764;9.796;2023-02-28T03:59:10;-3.80;99.90
5901;DHT22;2976;49.764;9.796;2023-02-28T04:01:38;-3.90;99.90
5901;DHT22;2976;49.764;9.796;2023-02-28T04:04:07;-3.90;99.90
5901;DHT22;2976;49.764;9.796;2023-02-28T04:06:33;-3.90;99.90
5901;DHT22;2976;49.764;9.796;2023-02-28T04:08:59;-3.90;99.90
5901;DHT22;2976;49.764;9.796;2023-02-28T04:14:04;-3.90;99.90
5901;DHT22;2976;49.764;9.796;2023-02-28T04:16:31;-3.80;99.90
5901;DHT22;2976;49.764;9.796;2023-02-28T04:18:57;-3.80;99.90
5901;DHT22;2976;49.764;9.796;2023-02-28T04:21:29;-3.80;99.90
5901;DHT22;2976;49.764;9.796;2023-02-28T04:23:55;-3.70;99.90
5901;DHT22;2976;49.764;9.796;2023-02-28T04:26:21;-3.80;99.90
5901;DHT22;2976;49.764;9.796;2023-02-28T04:28:46;-3.80;99.90
5901;DHT22;2976;49.764;9.796;2023-02-28T04:31:12;-3.70;99.90
5901;DHT22;2976;49.764;9.796;2023-02-28T04:33:37;-3.70;99.90
5901;DHT22;2976;49.764;9.796;2023-02-28T04:36:05;-3.60;99.90
5901;DHT22;2976;49.764;9.796;2023-02-28T04:38:36;-3.70;99.90
5901;DHT22;2976;49.764;9.796;2023-02-28T04:41:02;-3.70;99.90
5901;DHT22;2976;49.764;9.796;2023-02-28T04:43:29;-3.60;99.90
5901;DHT22;2976;49.764;9.796;2023-02-28T04:45:56;-3.70;99.90
5901;DHT22;2976;49.764;9.796;2023-02-28T04:48:22;-3.70;99.90
5901;DHT22;2976;49.764;9.796;2023-02-28T04:50:48;-3.70;99.90
5901;DHT22;2976;49.764;9.796;2023-02-28T04:53:14;-3.70;99.90
5901;DHT22;2976;49.764;9.796;2023-02-28T04:55:39;-3.60;99.90
5901;DHT22;2976;49.764;9.796;2023-02-28T04:58:05;-3.60;99.90
5901;DHT22;2976;49.764;9.796;2023-02-28T05:00:30;-3.60;99.90
5901;DHT22;2976;49.764;9.796;2023-02-28T05:02:56;-3.60;99.90
5901;DHT22;2976;49.764;9.796;2023-02-28T05:05:21;-3.60;99.90
5901;DHT22;2976;49.764;9.796;2023-02-28T05:07:47;-3.60;99.90
5901;DHT22;2976;49.764;9.796;2023-02-28T05:10:12;-3.50;99.90
5901;DHT22;2976;49.764;9.796;2023-02-28T05:12:38;-3.60;99.90
5901;DHT22;2976;49.764;9.796;2023-02-28T05:15:04;-3.60;99.90
5901;DHT22;2976;49.764;9.796;2023-02-28T05:17:30;-3.60;99.90
5901;DHT22;2976;49.764;9.796;2023-02-28T05:19:56;-3.60;99.90
5901;DHT22;2976;49.764;9.796;2023-02-28T05:22:22;-3.70;99.90
5901;DHT22;2976;49.764;9.796;2023-02-28T05:24:47;-3.60;99.90
5901;DHT22;2976;49.764;9.796;2023-02-28T05:27:13;-3.70;99.90
5901;DHT22;2976;49.764;9.796;2023-02-28T05:29:38;-3.60;99.90
5901;DHT22;2976;49.764;9.796;2023-02-28T05:32:09;-3.60;99.90
5901;DHT22;2976;49.764;9.796;2023-02-28T05:34:36;-3.60;99.90
5901;DHT22;2976;49.764;9.796;2023-02-28T05:37:02;-3.60;99.90
5901;DHT22;2976;49.764;9.796;2023-02-28T05:39:27;-3.60;99.90
5901;DHT22;2976;49.764;9.796;2023-02-28T05:41:53;-3.50;99.90
5901;DHT22;2976;49.764;9.796;2023-02-28T05:44:18;-3.60;99.90
5901;DHT22;2976;49.764;9.796;2023-02-28T05:46:44;-3.60;99.90
5901;DHT22;2976;49.764;9.796;2023-02-28T05:49:09;-3.60;99.90
5901;DHT22;2976;49.764;9.796;2023-02-28T05:51:35;-3.60;99.90
5901;DHT22;2976;49.764;9.796;2023-02-28T05:54:02;-3.70;99.90
5901;DHT22;2976;49.764;9.796;2023-02-28T05:56:27;-3.60;99.90
5901;DHT22;2976;49.764;9.796;2023-02-28T05:58:53;-3.60;99.90
5901;DHT22;2976;49.764;9.796;2023-02-28T06:01:31;-3.60;99.90
5901;DHT22;2976;49.764;9.796;2023-02-28T06:03:59;-3.60;99.90
5901;DHT22;2976;49.764;9.796;2023-02-28T06:06:25;-3.50;99.90
5901;DHT22;2976;49.764;9.796;2023-02-28T06:08:50;-3.50;99.90
5901;DHT22;2976;49.764;9.796;2023-02-28T06:11:16;-3.40;99.90
5901;DHT22;2976;49.764;9.796;2023-02-28T06:13:42;-3.40;99.90
5901;DHT22;2976;49.764;9.796;2023-02-28T06:16:10;-3.30;99.90
5901;DHT22;2976;49.764;9.796;2023-02-28T06:18:36;-3.30;99.90
5901;DHT22;2976;49.764;9.796;2023-02-28T06:21:01;-3.30;99.90
5901;DHT22;2976;49.764;9.796;2023-02-28T06:23:27;-3.30;99.90
5901;DHT22;2976;49.764;9.796;2023-02-28T06:25:52;-3.30;99.90
5901;DHT22;2976;49.764;9.796;2023-02-28T06:28:18;-3.40;99.90
5901;DHT22;2976;49.764;9.796;2023-02-28T06:30:44;-3.40;99.90
5901;DHT22;2976;49.764;9.796;2023-02-28T06:33:09;-3.30;99.90
5901;DHT22;2976;49.764;9.796;2023-02-28T06:35:35;-3.30;99.90
5901;DHT22;2976;49.764;9.796;2023-02-28T06:38:01;-3.30;99.90
5901;DHT22;2976;49.764;9.796;2023-02-28T06:40:27;-3.30;99.90
5901;DHT22;2976;49.764;9.796;2023-02-28T06:42:52;-3.30;99.90
5901;DHT22;2976;49.764;9.796;2023-02-28T06:45:18;-3.20;99.90
5901;DHT22;2976;49.764;9.796;2023-02-28T06:47:43;-3.30;99.90
5901;DHT22;2976;49.764;9.796;2023-02-28T06:50:11;-3.20;99.70
5901;DHT22;2976;49.764;9.796;2023-02-28T06:52:37;-3.20;99.90
5901;DHT22;2976;49.764;9.796;2023-02-28T06:55:07;-3.20;97.80
5901;DHT22;2976;49.764;9.796;2023-02-28T06:57:35;-3.10;95.90
5901;DHT22;2976;49.764;9.796;2023-02-28T07:00:04;-3.10;93.70
5901;DHT22;2976;49.764;9.796;2023-02-28T07:02:30;-3.10;93.50
5901;DHT22;2976;49.764;9.796;2023-02-28T07:04:56;-3.00;88.40
5901;DHT22;2976;49.764;9.796;2023-02-28T07:07:22;-3.00;80.90
5901;DHT22;2976;49.764;9.796;2023-02-28T07:09:47;-2.90;67.90
5901;DHT22;2976;49.764;9.796;2023-02-28T07:12:13;-2.80;57.30
5901;DHT22;2976;49.764;9.796;2023-02-28T07:14:39;-2.80;44.50
5901;DHT22;2976;49.764;9.796;2023-02-28T07:17:07;-2.60;35.00
5901;DHT22;2976;49.764;9.796;2023-02-28T07:19:32;-2.50;21.40
5901;DHT22;2976;49.764;9.796;2023-02-28T07:21:58;-2.40;1.00
5901;DHT22;2976;49.764;9.796;2023-02-28T07:24:23;-2.40;1.00
5901;DHT22;2976;49.764;9.796;2023-02-28T07:26:53;-2.30;1.00
5901;DHT22;2976;49.764;9.796;2023-02-28T07:29:18;-2.20;1.00
5901;DHT22;2976;49.764;9.796;2023-02-28T07:31:44;-2.20;1.00
5901;DHT22;2976;49.764;9.796;2023-02-28T07:34:10;-2.00;1.00
5901;DHT22;2976;49.764;9.796;2023-02-28T07:36:35;-1.80;1.00
5901;DHT22;2976;49.764;9.796;2023-02-28T07:39:01;-1.70;1.00
5901;DHT22;2976;49.764;9.796;2023-02-28T07:41:26;-1.70;1.00
5901;DHT22;2976;49.764;9.796;2023-02-28T07:43:55;-1.70;1.00
5901;DHT22;2976;49.764;9.796;2023-02-28T07:46:23;-1.80;1.00
5901;DHT22;2976;49.764;9.796;2023-02-28T07:48:48;-1.70;1.00
5901;DHT22;2976;49.764;9.796;2023-02-28T07:51:14;-1.60;1.00
5901;DHT22;2976;49.764;9.796;2023-02-28T07:53:39;-1.40;1.00
5901;DHT22;2976;49.764;9.796;2023-02-28T07:56:05;-1.30;99.90
5901;DHT22;2976;49.764;9.796;2023-02-28T07:58:31;-1.20;1.00
5901;DHT22;2976;49.764;9.796;2023-02-28T08:00:57;-1.10;99.90
5901;DHT22;2976;49.764;9.796;2023-02-28T08:03:29;-1.00;99.90
5901;DHT22;2976;49.764;9.796;2023-02-28T08:05:55;-1.00;99.90
5901;DHT22;2976;49.764;9.796;2023-02-28T08:08:20;-1.10;1.00
5901;DHT22;2976;49.764;9.796;2023-02-28T08:10:46;-1.00;1.00
5901;DHT22;2976;49.764;9.796;2023-02-28T08:13:11;-0.70;99.90
5901;DHT22;2976;49.764;9.796;2023-02-28T08:15:37;-0.50;14.60
5901;DHT22;2976;49.764;9.796;2023-02-28T08:18:02;0.00;1.00
5901;DHT22;2976;49.764;9.796;2023-02-28T08:20:28;0.30;99.90
5901;DHT22;2976;49.764;9.796;2023-02-28T08:22:54;0.10;13.20
5901;DHT22;2976;49.764;9.796;2023-02-28T08:25:20;0.20;1.00
5901;DHT22;2976;49.764;9.796;2023-02-28T08:27:46;0.40;1.00
5901;DHT22;2976;49.764;9.796;2023-02-28T08:30:13;0.50;1.00
5901;DHT22;2976;49.764;9.796;2023-02-28T08:32:40;0.90;1.00
5901;DHT22;2976;49.764;9.796;2023-02-28T08:35:06;0.90;1.00
5901;DHT22;2976;49.764;9.796;2023-02-28T08:37:32;1.00;1.00
5901;DHT22;2976;49.764;9.796;2023-02-28T08:39:57;1.10;99.90
5901;DHT22;2976;49.764;9.796;2023-02-28T08:42:23;0.90;1.00
5901;DHT22;2976;49.764;9.796;2023-02-28T08:44:49;1.00;1.00
5901;DHT22;2976;49.764;9.796;2023-02-28T08:47:14;1.40;99.90
5901;DHT22;2976;49.764;9.796;2023-02-28T08:49:40;1.50;99.90
5901;DHT22;2976;49.764;9.796;2023-02-28T08:52:05;1.80;54.60
5901;DHT22;2976;49.764;9.796;2023-02-28T08:54:31;1.90;1.00
5901;DHT22;2976;49.764;9.796;2023-02-28T08:56:58;1.60;1.00
5901;DHT22;2976;49.764;9.796;2023-02-28T08:59:24;1.30;1.00
5901;DHT22;2976;49.764;9.796;2023-02-28T09:01:49;1.10;1.00
5901;DHT22;2976;49.764;9.796;2023-02-28T09:04:15;1.10;99.90
5901;DHT22;2976;49.764;9.796;2023-02-28T09:06:40;1.30;1.00
5901;DHT22;2976;49.764;9.796;2023-02-28T09:09:06;1.60;6.90
5901;DHT22;2976;49.764;9.796;2023-02-28T09:11:33;2.00;1.00
5901;DHT22;2976;49.764;9.796;2023-02-28T09:13:59;2.20;99.90
5901;DHT22;2976;49.764;9.796;2023-02-28T09:16:26;2.20;1.00
5901;DHT22;2976;49.764;9.796;2023-02-28T09:18:51;2.00;1.00
5901;DHT22;2976;49.764;9.796;2023-02-28T09:21:18;1.90;1.00
5901;DHT22;2976;49.764;9.796;2023-02-28T09:23:46;2.10;1.00
5901;DHT22;2976;49.764;9.796;2023-02-28T09:26:16;2.20;99.90
5901;DHT22;2976;49.764;9.796;2023-02-28T09:28:43;2.50;99.90
5901;DHT22;2976;49.764;9.796;2023-02-28T09:31:17;2.60;99.90
5901;DHT22;2976;49.764;9.796;2023-02-28T09:33:46;2.70;99.90
5901;DHT22;2976;49.764;9.796;2023-02-28T09:36:12;2.80;99.90
5901;DHT22;2976;49.764;9.796;2023-02-28T09:38:37;2.70;99.90
5901;DHT22;2976;49.764;9.796;2023-02-28T09:41:12;2.30;99.90
5901;DHT22;2976;49.764;9.796;2023-02-28T09:43:43;2.40;99.90
5901;DHT22;2976;49.764;9.796;2023-02-28T09:46:40;2.50;99.90
5901;DHT22;2976;49.764;9.796;2023-02-28T09:49:12;2.50;99.90
5901;DHT22;2976;49.764;9.796;2023-02-28T09:54:21;2.40;99.90
5901;DHT22;2976;49.764;9.796;2023-02-28T10:02:41;1.80;99.90
5901;DHT22;2976;49.764;9.796;2023-02-28T10:05:16;1.60;1.00
5901;DHT22;2976;49.764;9.796;2023-02-28T10:07:51;1.70;1.00
5901;DHT22;2976;49.764;9.796;2023-02-28T10:12:47;1.90;99.90
5901;DHT22;2976;49.764;9.796;2023-02-28T10:15:17;1.90;99.90
5901;DHT22;2976;49.764;9.796;2023-02-28T10:17:44;2.30;99.90
5901;DHT22;2976;49.764;9.796;2023-02-28T10:20:15;2.60;99.90
5901;DHT22;2976;49.764;9.796;2023-02-28T10:23:20;2.90;99.90
5901;DHT22;2976;49.764;9.796;2023-02-28T10:25:55;2.90;99.90
5901;DHT22;2976;49.764;9.796;2023-02-28T10:28:22;2.90;99.90
5901;DHT22;2976;49.764;9.796;2023-02-28T10:30:51;2.90;99.90
5901;DHT22;2976;49.764;9.796;2023-02-28T10:33:19;2.80;99.90
5901;DHT22;2976;49.764;9.796;2023-02-28T10:35:45;2.80;99.90
5901;DHT22;2976;49.764;9.796;2023-02-28T10:38:21;2.40;99.90
5901;DHT22;2976;49.764;9.796;2023-02-28T10:40:47;2.20;99.90
5901;DHT22;2976;49.764;9.796;2023-02-28T10:45:38;2.40;99.90
5901;DHT22;2976;49.764;9.796;2023-02-28T10:50:53;2.30;99.90
5901;DHT22;2976;49.764;9.796;2023-02-28T10:58:49;3.30;99.90
5901;DHT22;2976;49.764;9.796;2023-02-28T11:01:21;3.60;99.90
5901;DHT22;2976;49.764;9.796;2023-02-28T11:03:47;3.80;99.90
5901;DHT22;2976;49.764;9.796;2023-02-28T11:06:16;4.00;99.90
5901;DHT22;2976;49.764;9.796;2023-02-28T11:08:56;4.30;99.90
5901;DHT22;2976;49.764;9.796;2023-02-28T11:11:25;4.10;99.90
5901;DHT22;2976;49.764;9.796;2023-02-28T11:13:55;3.80;99.90
5901;DHT22;2976;49.764;9.796;2023-02-28T11:16:31;3.90;99.90
5901;DHT22;2976;49.764;9.796;2023-02-28T11:18:58;4.20;99.90
5901;DHT22;2976;49.764;9.796;2023-02-28T11:21:31;4.40;99.90
5901;DHT22;2976;49.764;9.796;2023-02-28T11:26:43;4.80;99.90
5901;DHT22;2976;49.764;9.796;2023-02-28T11:29:15;4.50;99.90
5901;DHT22;2976;49.764;9.796;2023-02-28T11:31:42;3.90;99.90
5901;DHT22;2976;49.764;9.796;2023-02-28T11:34:24;3.50;99.90
5901;DHT22;2976;49.764;9.796;2023-02-28T11:36:52;3.10;99.90
5901;DHT22;2976;49.764;9.796;2023-02-28T11:39:19;3.10;99.90
5901;DHT22;2976;49.764;9.796;2023-02-28T11:42:07;3.00;99.90
5901;DHT22;2976;49.764;9.796;2023-02-28T11:58:31;2.50;99.90
5901;DHT22;2976;49.764;9.796;2023-02-28T12:01:25;2.70;99.90
5901;DHT22;2976;49.764;9.796;2023-02-28T12:04:03;2.80;99.90
5901;DHT22;2976;49.764;9.796;2023-02-28T12:06:45;2.90;99.90
5901;DHT22;2976;49.764;9.796;2023-02-28T12:12:18;2.80;99.90
5901;DHT22;2976;49.764;9.796;2023-02-28T12:18:22;2.80;99.90
5901;DHT22;2976;49.764;9.796;2023-02-28T12:21:04;2.70;99.90
5901;DHT22;2976;49.764;9.796;2023-02-28T12:23:48;3.00;99.90
5901;DHT22;2976;49.764;9.796;2023-02-28T12:32:21;3.00;99.90
5901;DHT22;2976;49.764;9.796;2023-02-28T12:34:59;3.10;99.90
5901;DHT22;2976;49.764;9.796;2023-02-28T12:37:39;3.10;99.90
5901;DHT22;2976;49.764;9.796;2023-02-28T12:40:12;3.00;99.90
5901;DHT22;2976;49.764;9.796;2023-02-28T12:42:46;2.90;99.90
5901;DHT22;2976;49.764;9.796;2023-02-28T12:45:24;3.10;99.90
5901;DHT22;2976;49.764;9.796;2023-02-28T12:47:57;3.00;99.90
5901;DHT22;2976;49.764;9.796;2023-02-28T12:50:25;3.20;99.90
5901;DHT22;2976;49.764;9.796;2023-02-28T12:58:22;3.10;99.90
5901;DHT22;2976;49.764;9.796;2023-02-28T13:09:22;2.70;99.90
5901;DHT22;2976;49.764;9.796;2023-02-28T13:11:50;2.70;99.90
5901;DHT22;2976;49.764;9.796;2023-02-28T13:14:26;2.80;99.90
5901;DHT22;2976;49.764;9.796;2023-02-28T13:19:22;2.80;99.90
5901;DHT22;2976;49.764;9.796;2023-02-28T13:21:50;3.00;99.90
5901;DHT22;2976;49.764;9.796;2023-02-28T13:24:40;2.80;99.90
5901;DHT22;2976;49.764;9.796;2023-02-28T13:29:36;2.80;99.90
5901;DHT22;2976;49.764;9.796;2023-02-28T13:34:41;2.90;99.90
5901;DHT22;2976;49.764;9.796;2023-02-28T13:47:30;3.00;99.90
5901;DHT22;2976;49.764;9.796;2023-02-28T13:55:28;3.00;99.90
5901;DHT22;2976;49.764;9.796;2023-02-28T14:11:26;3.20;99.90
5901;DHT22;2976;49.764;9.796;2023-02-28T14:13:52;3.20;99.90
5901;DHT22;2976;49.764;9.796;2023-02-28T14:16:21;3.20;99.90
5901;DHT22;2976;49.764;9.796;2023-02-28T14:18:51;3.20;99.90
5901;DHT22;2976;49.764;9.796;2023-02-28T14:21:45;3.10;99.90
5901;DHT22;2976;49.764;9.796;2023-02-28T14:38:45;3.40;99.90
5901;DHT22;2976;49.764;9.796;2023-02-28T14:41:33;3.30;99.90
5901;DHT22;2976;49.764;9.796;2023-02-28T14:44:25;3.40;99.90
5901;DHT22;2976;49.764;9.796;2023-02-28T14:46:52;3.40;99.90
5901;DHT22;2976;49.764;9.796;2023-02-28T14:49:26;3.30;99.90
5901;DHT22;2976;49.764;9.796;2023-02-28T14:52:23;3.30;99.90
5901;DHT22;2976;49.764;9.796;2023-02-28T14:54:54;3.30;99.90
5901;DHT22;2976;49.764;9.796;2023-02-28T14:57:32;3.40;99.90
5901;DHT22;2976;49.764;9.796;2023-02-28T15:00:14;3.40;99.90
5901;DHT22;2976;49.764;9.796;2023-02-28T15:02:41;3.40;99.90
5901;DHT22;2976;49.764;9.796;2023-02-28T15:07:36;3.40;99.90
5901;DHT22;2976;49.764;9.796;2023-02-28T15:10:25;3.40;99.90
5901;DHT22;2976;49.764;9.796;2023-02-28T15:13:00;3.50;99.90
5901;DHT22;2976;49.764;9.796;2023-02-28T15:15:34;3.50;99.90
5901;DHT22;2976;49.764;9.796;2023-02-28T15:18:03;3.60;99.90
5901;DHT22;2976;49.764;9.796;2023-02-28T15:20:31;3.50;99.90
5901;DHT22;2976;49.764;9.796;2023-02-28T15:22:57;3.40;99.90
5901;DHT22;2976;49.764;9.796;2023-02-28T15:25:23;3.30;99.90
5901;DHT22;2976;49.764;9.796;2023-02-28T15:27:51;3.20;99.90
5901;DHT22;2976;49.764;9.796;2023-02-28T15:30:29;3.20;99.90
5901;DHT22;2976;49.764;9.796;2023-02-28T15:35:33;3.20;99.90
5901;DHT22;2976;49.764;9.796;2023-02-28T15:40:38;3.10;99.90
5901;DHT22;2976;49.764;9.796;2023-02-28T15:43:28;3.10;99.90
5901;DHT22;2976;49.764;9.796;2023-02-28T15:46:11;3.10;99.90
5901;DHT22;2976;49.764;9.796;2023-02-28T15:48:54;3.10;99.90
5901;DHT22;2976;49.764;9.796;2023-02-28T15:51:33;3.00;99.90
5901;DHT22;2976;49.764;9.796;2023-02-28T15:54:04;3.00;99.90
5901;DHT22;2976;49.764;9.796;2023-02-28T15:56:33;2.90;99.90
5901;DHT22;2976;49.764;9.796;2023-02-28T15:59:02;2.90;99.90
5901;DHT22;2976;49.764;9.796;2023-02-28T16:03:59;2.80;99.90
5901;DHT22;2976;49.764;9.796;2023-02-28T16:09:10;2.70;99.90
5901;DHT22;2976;49.764;9.796;2023-02-28T16:11:48;2.70;99.90
5901;DHT22;2976;49.764;9.796;2023-02-28T16:14:22;2.60;99.90
5901;DHT22;2976;49.764;9.796;2023-02-28T16:16:51;2.50;99.90
5901;DHT22;2976;49.764;9.796;2023-02-28T16:19:18;2.50;99.90
5901;DHT22;2976;49.764;9.796;2023-02-28T16:21:44;2.40;99.90
5901;DHT22;2976;49.764;9.796;2023-02-28T16:24:10;2.40;99.90
5901;DHT22;2976;49.764;9.796;2023-02-28T16:26:36;2.30;1.00
5901;DHT22;2976;49.764;9.796;2023-02-28T16:29:04;2.20;99.90
5901;DHT22;2976;49.764;9.796;2023-02-28T16:31:32;2.20;1.00
5901;DHT22;2976;49.764;9.796;2023-02-28T16:34:00;2.00;1.00
5901;DHT22;2976;49.764;9.796;2023-02-28T16:36:26;2.00;1.00
5901;DHT22;2976;49.764;9.796;2023-02-28T16:38:54;1.90;1.00
5901;DHT22;2976;49.764;9.796;2023-02-28T16:41:21;1.80;1.00
5901;DHT22;2976;49.764;9.796;2023-02-28T16:43:50;1.70;1.00
5901;DHT22;2976;49.764;9.796;2023-02-28T16:46:16;1.70;1.00
5901;DHT22;2976;49.764;9.796;2023-02-28T16:48:44;1.70;1.00
5901;DHT22;2976;49.764;9.796;2023-02-28T16:51:14;1.70;1.00
5901;DHT22;2976;49.764;9.796;2023-02-28T16:53:41;1.60;1.00
5901;DHT22;2976;49.764;9.796;2023-02-28T16:56:17;1.50;1.00
5901;DHT22;2976;49.764;9.796;2023-02-28T16:58:44;1.50;1.00
5901;DHT22;2976;49.764;9.796;2023-02-28T17:01:10;1.50;1.00
5901;DHT22;2976;49.764;9.796;2023-02-28T17:03:35;1.40;1.00
5901;DHT22;2976;49.764;9.796;2023-02-28T17:06:03;1.30;1.00
5901;DHT22;2976;49.764;9.796;2023-02-28T17:08:29;1.20;51.50
5901;DHT22;2976;49.764;9.796;2023-02-28T17:10:55;1.10;99.90
5901;DHT22;2976;49.764;9.796;2023-02-28T17:13:20;1.00;99.90
5901;DHT22;2976;49.764;9.796;2023-02-28T17:15:46;0.80;99.90
5901;DHT22;2976;49.764;9.796;2023-02-28T17:18:17;0.70;1.00
5901;DHT22;2976;49.764;9.796;2023-02-28T17:20:44;0.70;1.00
5901;DHT22;2976;49.764;9.796;2023-02-28T17:23:10;0.60;1.00
5901;DHT22;2976;49.764;9.796;2023-02-28T17:25:36;0.50;1.00
5901;DHT22;2976;49.764;9.796;2023-02-28T17:28:02;0.40;31.80
5901;DHT22;2976;49.764;9.796;2023-02-28T17:30:27;0.40;99.90
5901;DHT22;2976;49.764;9.796;2023-02-28T17:32:55;0.30;99.90
5901;DHT22;2976;49.764;9.796;2023-02-28T17:35:21;0.20;1.00
5901;DHT22;2976;49.764;9.796;2023-02-28T17:37:46;0.20;1.00
5901;DHT22;2976;49.764;9.796;2023-02-28T17:40:18;0.30;1.00
5901;DHT22;2976;49.764;9.796;2023-02-28T17:42:44;0.20;1.00
5901;DHT22;2976;49.764;9.796;2023-02-28T17:45:11;0.10;99.90
5901;DHT22;2976;49.764;9.796;2023-02-28T17:47:37;0.00;99.90
5901;DHT22;2976;49.764;9.796;2023-02-28T17:50:03;0.00;99.90
5901;DHT22;2976;49.764;9.796;2023-02-28T17:52:28;0.10;1.00
5901;DHT22;2976;49.764;9.796;2023-02-28T17:54:54;0.00;1.00
5901;DHT22;2976;49.764;9.796;2023-02-28T17:57:20;0.00;1.00
5901;DHT22;2976;49.764;9.796;2023-02-28T17:59:46;0.00;1.00
5901;DHT22;2976;49.764;9.796;2023-02-28T18:02:13;-0.10;1.00
5901;DHT22;2976;49.764;9.796;2023-02-28T18:04:38;-0.20;99.90
5901;DHT22;2976;49.764;9.796;2023-02-28T18:07:06;-0.20;1.00
5901;DHT22;2976;49.764;9.796;2023-02-28T18:09:31;-0.30;99.90
5901;DHT22;2976;49.764;9.796;2023-02-28T18:11:57;-0.20;1.00
5901;DHT22;2976;49.764;9.796;2023-02-28T18:14:24;-0.20;1.00
5901;DHT22;2976;49.764;9.796;2023-02-28T18:16:51;-0.10;99.90
5901;DHT22;2976;49.764;9.796;2023-02-28T18:19:17;-0.10;1.00
5901;DHT22;2976;49.764;9.796;2023-02-28T18:21:45;-0.20;99.90
5901;DHT22;2976;49.764;9.796;2023-02-28T18:24:11;-0.10;26.80
5901;DHT22;2976;49.764;9.796;2023-02-28T18:26:37;0.00;99.90
5901;DHT22;2976;49.764;9.796;2023-02-28T18:29:04;0.00;99.90
5901;DHT22;2976;49.764;9.796;2023-02-28T18:31:30;0.00;99.90
5901;DHT22;2976;49.764;9.796;2023-02-28T18:33:57;-0.10;99.90
5901;DHT22;2976;49.764;9.796;2023-02-28T18:36:23;-0.10;99.90
5901;DHT22;2976;49.764;9.796;2023-02-28T18:38:49;-0.20;1.00
5901;DHT22;2976;49.764;9.796;2023-02-28T18:41:15;-0.30;1.00
5901;DHT22;2976;49.764;9.796;2023-02-28T18:43:41;-0.40;99.90
5901;DHT22;2976;49.764;9.796;2023-02-28T18:46:12;-0.30;99.90
5901;DHT22;2976;49.764;9.796;2023-02-28T18:48:39;-0.40;99.90
5901;DHT22;2976;49.764;9.796;2023-02-28T18:51:16;-0.40;99.90
5901;DHT22;2976;49.764;9.796;2023-02-28T18:53:43;-0.40;1.00
5901;DHT22;2976;49.764;9.796;2023-02-28T18:56:11;-0.30;99.90
5901;DHT22;2976;49.764;9.796;2023-02-28T18:58:37;-0.30;1.00
5901;DHT22;2976;49.764;9.796;2023-02-28T19:01:11;-0.30;99.90
5901;DHT22;2976;49.764;9.796;2023-02-28T19:03:37;-0.30;99.90
5901;DHT22;2976;49.764;9.796;2023-02-28T19:06:03;-0.40;1.00
5901;DHT22;2976;49.764;9.796;2023-02-28T19:08:29;-0.40;1.00
5901;DHT22;2976;49.764;9.796;2023-02-28T19:10:54;-0.40;99.90